sensor_id;sensor_type;location;lat;lon;timestamp;pressure;altitude;pressure_sealevel;temperature
76901;BMP280;65859;43.020;25.096;2024-03-06T00:00:20;99158.81;;;9.37
76901;BMP280;65859;43.020;25.096;2024-03-06T00:02:46;99163.22;;;9.25
76901;BMP280;65859;43.020;25.096;2024-03-06T00:05:13;99168.06;;;9.31
76901;BMP280;65859;43.020;25.096;2024-03-06T00:07:39;99162.44;;;9.33
76901;BMP280;65859;43.020;25.096;2024-03-06T00:10:07;99142.69;;;9.13
76901;BMP280;65859;43.020;25.096;2024-03-06T00:12:34;99157.47;;;9.31
76901;BMP280;65859;43.020;25.096;2024-03-06T00:15:00;99158.22;;;9.49
76901;BMP280;65859;43.020;25.096;2024-03-06T00:17:28;99161.19;;;9.04
76901;BMP280;65859;43.020;25.096;2024-03-06T00:19:54;99161.03;;;9.18
76901;BMP280;65859;43.020;25.096;2024-03-06T00:22:22;99165.25;;;9.28
76901;BMP280;65859;43.020;25.096;2024-03-06T00:24:48;99163.63;;;9.44
76901;BMP280;65859;43.020;25.096;2024-03-06T00:27:14;99165.41;;;9.31
76901;BMP280;65859;43.020;25.096;2024-03-06T00:29:40;99168.16;;;9.52
76901;BMP280;65859;43.020;25.096;2024-03-06T00:32:07;99169.44;;;9.20
76901;BMP280;65859;43.020;25.096;2024-03-06T00:34:33;99158.88;;;9.20
76901;BMP280;65859;43.020;25.096;2024-03-06T00:36:59;99158.84;;;9.29
76901;BMP280;65859;43.020;25.096;2024-03-06T00:39:25;99156.97;;;9.47
76901;BMP280;65859;43.020;25.096;2024-03-06T00:41:52;99157.28;;;9.28
76901;BMP280;65859;43.020;25.096;2024-03-06T00:44:19;99153.38;;;9.25
76901;BMP280;65859;43.020;25.096;2024-03-06T00:46:45;99159.91;;;9.45
76901;BMP280;65859;43.020;25.096;2024-03-06T00:49:11;99162.44;;;9.33
76901;BMP280;65859;43.020;25.096;2024-03-06T00:51:37;99162.47;;;9.24
76901;BMP280;65859;43.020;25.096;2024-03-06T00:54:05;99153.22;;;9.48
76901;BMP280;65859;43.020;25.096;2024-03-06T00:56:31;99156.66;;;9.39
76901;BMP280;65859;43.020;25.096;2024-03-06T00:58:57;99155.88;;;9.30
76901;BMP280;65859;43.020;25.096;2024-03-06T01:01:24;99158.53;;;9.30
76901;BMP280;65859;43.020;25.096;2024-03-06T01:03:50;99152.28;;;9.35
76901;BMP280;65859;43.020;25.096;2024-03-06T01:06:16;99164.63;;;9.22
76901;BMP280;65859;43.020;25.096;2024-03-06T01:08:42;99164.47;;;9.27
76901;BMP280;65859;43.020;25.096;2024-03-06T01:11:09;99168.06;;;9.05
76901;BMP280;65859;43.020;25.096;2024-03-06T01:13:40;99168.81;;;9.32
76901;BMP280;65859;43.020;25.096;2024-03-06T01:16:07;99173.19;;;9.28
76901;BMP280;65859;43.020;25.096;2024-03-06T01:18:33;99162.28;;;9.21
76901;BMP280;65859;43.020;25.096;2024-03-06T01:21:00;99162.28;;;9.21
76901;BMP280;65859;43.020;25.096;2024-03-06T01:23:26;99165.25;;;9.10
76901;BMP280;65859;43.020;25.096;2024-03-06T01:25:54;99167.41;;;9.17
76901;BMP280;65859;43.020;25.096;2024-03-06T01:28:20;99167.13;;;9.10
76901;BMP280;65859;43.020;25.096;2024-03-06T01:30:47;99170.97;;;9.30
76901;BMP280;65859;43.020;25.096;2024-03-06T01:33:13;99174.44;;;9.04
76901;BMP280;65859;43.020;25.096;2024-03-06T01:35:39;99168.47;;;8.90
76901;BMP280;65859;43.020;25.096;2024-03-06T01:38:05;99186.72;;;9.17
76901;BMP280;65859;43.020;25.096;2024-03-06T01:40:32;99185.78;;;8.96
76901;BMP280;65859;43.020;25.096;2024-03-06T01:42:58;99192.34;;;9.16
76901;BMP280;65859;43.020;25.096;2024-03-06T01:45:24;99195.13;;;9.37
76901;BMP280;65859;43.020;25.096;2024-03-06T01:47:50;99193.25;;;9.11
76901;BMP280;65859;43.020;25.096;2024-03-06T01:50:17;99193.44;;;9.15
76901;BMP280;65859;43.020;25.096;2024-03-06T01:52:44;99199.03;;;9.31
76901;BMP280;65859;43.020;25.096;2024-03-06T01:55:11;99194.03;;;9.12
76901;BMP280;65859;43.020;25.096;2024-03-06T01:57:40;99191.09;;;9.22
76901;BMP280;65859;43.020;25.096;2024-03-06T02:00:09;99187.50;;;9.09
76901;BMP280;65859;43.020;25.096;2024-03-06T02:02:41;99182.97;;;9.18
76901;BMP280;65859;43.020;25.096;2024-03-06T02:05:07;99186.25;;;9.07
76901;BMP280;65859;43.020;25.096;2024-03-06T02:07:34;99179.72;;;9.04
76901;BMP280;65859;43.020;25.096;2024-03-06T02:10:02;99188.75;;;9.03
76901;BMP280;65859;43.020;25.096;2024-03-06T02:12:30;99183.75;;;9.10
76901;BMP280;65859;43.020;25.096;2024-03-06T02:14:56;99172.41;;;9.10
76901;BMP280;65859;43.020;25.096;2024-03-06T02:17:22;99186.72;;;9.09
76901;BMP280;65859;43.020;25.096;2024-03-06T02:19:51;99192.97;;;9.13
76901;BMP280;65859;43.020;25.096;2024-03-06T02:22:17;99195.63;;;9.13
76901;BMP280;65859;43.020;25.096;2024-03-06T02:24:47;99198.09;;;9.09
76901;BMP280;65859;43.020;25.096;2024-03-06T02:27:13;99201.50;;;9.18
76901;BMP280;65859;43.020;25.096;2024-03-06T02:29:41;99202.59;;;9.26
76901;BMP280;65859;43.020;25.096;2024-03-06T02:32:07;99206.50;;;9.20
76901;BMP280;65859;43.020;25.096;2024-03-06T02:34:34;99204.94;;;9.36
76901;BMP280;65859;43.020;25.096;2024-03-06T02:37:01;99208.22;;;9.25
76901;BMP280;65859;43.020;25.096;2024-03-06T02:39:27;99208.69;;;9.09
76901;BMP280;65859;43.020;25.096;2024-03-06T02:41:53;99216.47;;;9.23
76901;BMP280;65859;43.020;25.096;2024-03-06T02:44:19;99214.59;;;9.06
76901;BMP280;65859;43.020;25.096;2024-03-06T02:46:50;99223.66;;;9.05
76901;BMP280;65859;43.020;25.096;2024-03-06T02:49:17;99225.63;;;9.08
76901;BMP280;65859;43.020;25.096;2024-03-06T02:51:44;99231.22;;;8.98
76901;BMP280;65859;43.020;25.096;2024-03-06T02:54:10;99228.59;;;8.98
76901;BMP280;65859;43.020;25.096;2024-03-06T02:56:36;99225.47;;;8.96
76901;BMP280;65859;43.020;25.096;2024-03-06T02:59:03;99224.25;;;9.02
76901;BMP280;65859;43.020;25.096;2024-03-06T03:01:31;99228.56;;;8.81
76901;BMP280;65859;43.020;25.096;2024-03-06T03:03:57;99234.03;;;8.84
76901;BMP280;65859;43.020;25.096;2024-03-06T03:06:23;99228.28;;;8.91
76901;BMP280;65859;43.020;25.096;2024-03-06T03:08:52;99229.84;;;9.09
76901;BMP280;65859;43.020;25.096;2024-03-06T03:11:19;99232.19;;;9.02
76901;BMP280;65859;43.020;25.096;2024-03-06T03:13:45;99223.47;;;9.10
76901;BMP280;65859;43.020;25.096;2024-03-06T03:16:18;99223.34;;;9.24
76901;BMP280;65859;43.020;25.096;2024-03-06T03:18:46;99224.06;;;9.07
76901;BMP280;65859;43.020;25.096;2024-03-06T03:21:14;99218.97;;;9.02
76901;BMP280;65859;43.020;25.096;2024-03-06T03:23:40;99216.91;;;8.99
76901;BMP280;65859;43.020;25.096;2024-03-06T03:26:08;99218.97;;;9.20
76901;BMP280;65859;43.020;25.096;2024-03-06T03:28:38;99222.38;;;9.11
76901;BMP280;65859;43.020;25.096;2024-03-06T03:31:09;99216.47;;;9.14
76901;BMP280;65859;43.020;25.096;2024-03-06T03:33:40;99217.28;;;9.24
76901;BMP280;65859;43.020;25.096;2024-03-06T03:36:08;99224.25;;;9.28
76901;BMP280;65859;43.020;25.096;2024-03-06T03:38:35;99227.69;;;9.29
76901;BMP280;65859;43.020;25.096;2024-03-06T03:41:10;99230.63;;;9.10
76901;BMP280;65859;43.020;25.096;2024-03-06T03:43:41;99236.88;;;9.31
76901;BMP280;65859;43.020;25.096;2024-03-06T03:46:08;99233.47;;;9.31
76901;BMP280;65859;43.020;25.096;2024-03-06T03:48:35;99235.00;;;9.32
76901;BMP280;65859;43.020;25.096;2024-03-06T03:51:06;99241.25;;;9.27
76901;BMP280;65859;43.020;25.096;2024-03-06T03:53:33;99237.00;;;9.17
76901;BMP280;65859;43.020;25.096;2024-03-06T03:56:00;99244.94;;;9.00
76901;BMP280;65859;43.020;25.096;2024-03-06T03:58:26;99241.69;;;9.21
76901;BMP280;65859;43.020;25.096;2024-03-06T04:00:53;99235.81;;;9.24
76901;BMP280;65859;43.020;25.096;2024-03-06T04:03:21;99245.72;;;9.27
76901;BMP280;65859;43.020;25.096;2024-03-06T04:05:49;99239.22;;;9.33
76901;BMP280;65859;43.020;25.096;2024-03-06T04:08:15;99249.00;;;9.06
76901;BMP280;65859;43.020;25.096;2024-03-06T04:10:44;99244.03;;;9.22
76901;BMP280;65859;43.020;25.096;2024-03-06T04:13:11;99249.81;;;9.33
76901;BMP280;65859;43.020;25.096;2024-03-06T04:15:38;99252.59;;;9.28
76901;BMP280;65859;43.020;25.096;2024-03-06T04:18:05;99259.91;;;9.22
76901;BMP280;65859;43.020;25.096;2024-03-06T04:20:31;99254.66;;;9.31
76901;BMP280;65859;43.020;25.096;2024-03-06T04:22:58;99257.91;;;9.36
76901;BMP280;65859;43.020;25.096;2024-03-06T04:25:24;99252.13;;;9.26
76901;BMP280;65859;43.020;25.096;2024-03-06T04:27:50;99253.09;;;9.38
76901;BMP280;65859;43.020;25.096;2024-03-06T04:30:17;99257.59;;;9.29
76901;BMP280;65859;43.020;25.096;2024-03-06T04:32:43;99252.13;;;9.17
76901;BMP280;65859;43.020;25.096;2024-03-06T04:35:10;99256.03;;;9.20
76901;BMP280;65859;43.020;25.096;2024-03-06T04:37:38;99247.28;;;9.10
76901;BMP280;65859;43.020;25.096;2024-03-06T04:40:05;99253.97;;;9.08
76901;BMP280;65859;43.020;25.096;2024-03-06T04:42:35;99257.28;;;9.13
76901;BMP280;65859;43.020;25.096;2024-03-06T04:45:03;99250.88;;;9.14
76901;BMP280;65859;43.020;25.096;2024-03-06T04:47:29;99260.25;;;9.21
76901;BMP280;65859;43.020;25.096;2024-03-06T04:49:56;99252.28;;;9.21
76901;BMP280;65859;43.020;25.096;2024-03-06T04:52:23;99261.63;;;9.09
76901;BMP280;65859;43.020;25.096;2024-03-06T04:54:50;99260.72;;;9.31
76901;BMP280;65859;43.020;25.096;2024-03-06T04:57:16;99258.97;;;9.27
76901;BMP280;65859;43.020;25.096;2024-03-06T04:59:42;99256.50;;;9.22
76901;BMP280;65859;43.020;25.096;2024-03-06T05:02:11;99257.91;;;9.28
76901;BMP280;65859;43.020;25.096;2024-03-06T05:04:37;99254.47;;;9.36
76901;BMP280;65859;43.020;25.096;2024-03-06T05:07:03;99257.28;;;9.31
76901;BMP280;65859;43.020;25.096;2024-03-06T05:09:31;99266.41;;;9.07
76901;BMP280;65859;43.020;25.096;2024-03-06T05:11:57;99261.00;;;9.12
76901;BMP280;65859;43.020;25.096;2024-03-06T05:14:23;99260.03;;;9.08
76901;BMP280;65859;43.020;25.096;2024-03-06T05:16:49;99262.09;;;9.20
76901;BMP280;65859;43.020;25.096;2024-03-06T05:19:15;99264.56;;;9.08
76901;BMP280;65859;43.020;25.096;2024-03-06T05:21:42;99275.16;;;9.25
76901;BMP280;65859;43.020;25.096;2024-03-06T05:24:08;99278.16;;;9.32
76901;BMP280;65859;43.020;25.096;2024-03-06T05:26:34;99269.13;;;9.42
76901;BMP280;65859;43.020;25.096;2024-03-06T05:29:00;99283.94;;;9.43
76901;BMP280;65859;43.020;25.096;2024-03-06T05:31:26;99285.81;;;9.42
76901;BMP280;65859;43.020;25.096;2024-03-06T05:33:53;99285.63;;;9.39
76901;BMP280;65859;43.020;25.096;2024-03-06T05:36:20;99286.72;;;9.47
76901;BMP280;65859;43.020;25.096;2024-03-06T05:38:46;99295.13;;;9.40
76901;BMP280;65859;43.020;25.096;2024-03-06T05:41:15;99297.78;;;9.40
76901;BMP280;65859;43.020;25.096;2024-03-06T05:43:43;99303.88;;;9.49
76901;BMP280;65859;43.020;25.096;2024-03-06T05:46:10;99306.22;;;9.59
76901;BMP280;65859;43.020;25.096;2024-03-06T05:48:36;99303.38;;;9.56
76901;BMP280;65859;43.020;25.096;2024-03-06T05:51:02;99314.00;;;9.38
76901;BMP280;65859;43.020;25.096;2024-03-06T05:53:29;99315.81;;;9.21
76901;BMP280;65859;43.020;25.096;2024-03-06T05:55:55;99314.28;;;9.28
76901;BMP280;65859;43.020;25.096;2024-03-06T05:58:21;99313.84;;;9.43
76901;BMP280;65859;43.020;25.096;2024-03-06T06:00:48;99314.31;;;9.45
76901;BMP280;65859;43.020;25.096;2024-03-06T06:03:14;99300.44;;;9.31
76901;BMP280;65859;43.020;25.096;2024-03-06T06:05:40;99326.00;;;9.53
76901;BMP280;65859;43.020;25.096;2024-03-06T06:08:06;99321.78;;;9.43
76901;BMP280;65859;43.020;25.096;2024-03-06T06:10:33;99324.13;;;9.54
76901;BMP280;65859;43.020;25.096;2024-03-06T06:13:01;99326.31;;;9.34
76901;BMP280;65859;43.020;25.096;2024-03-06T06:15:27;99319.53;;;9.11
76901;BMP280;65859;43.020;25.096;2024-03-06T06:17:53;99319.13;;;9.35
76901;BMP280;65859;43.020;25.096;2024-03-06T06:20:20;99329.56;;;9.31
76901;BMP280;65859;43.020;25.096;2024-03-06T06:22:46;99322.72;;;9.39
76901;BMP280;65859;43.020;25.096;2024-03-06T06:25:13;99327.72;;;9.49
76901;BMP280;65859;43.020;25.096;2024-03-06T06:27:41;99323.97;;;9.50
76901;BMP280;65859;43.020;25.096;2024-03-06T06:30:08;99328.50;;;9.50
76901;BMP280;65859;43.020;25.096;2024-03-06T06:32:40;99325.97;;;9.27
76901;BMP280;65859;43.020;25.096;2024-03-06T06:35:07;99331.44;;;9.31
76901;BMP280;65859;43.020;25.096;2024-03-06T06:37:33;99330.47;;;9.44
76901;BMP280;65859;43.020;25.096;2024-03-06T06:40:00;99335.66;;;9.49
76901;BMP280;65859;43.020;25.096;2024-03-06T06:42:29;99335.66;;;9.66
76901;BMP280;65859;43.020;25.096;2024-03-06T06:44:56;99333.63;;;9.55
76901;BMP280;65859;43.020;25.096;2024-03-06T06:47:22;99339.88;;;9.67
76901;BMP280;65859;43.020;25.096;2024-03-06T06:49:48;99336.72;;;9.48
76901;BMP280;65859;43.020;25.096;2024-03-06T06:52:15;99338.78;;;9.51
76901;BMP280;65859;43.020;25.096;2024-03-06T06:54:41;99341.44;;;9.68
76901;BMP280;65859;43.020;25.096;2024-03-06T06:57:07;99343.59;;;9.92
76901;BMP280;65859;43.020;25.096;2024-03-06T06:59:34;99345.16;;;10.02
76901;BMP280;65859;43.020;25.096;2024-03-06T07:02:02;99345.00;;;9.98
76901;BMP280;65859;43.020;25.096;2024-03-06T07:04:28;99348.31;;;9.87
76901;BMP280;65859;43.020;25.096;2024-03-06T07:06:54;99353.72;;;9.73
76901;BMP280;65859;43.020;25.096;2024-03-06T07:09:20;99359.03;;;9.64
76901;BMP280;65859;43.020;25.096;2024-03-06T07:11:47;99347.03;;;9.58
76901;BMP280;65859;43.020;25.096;2024-03-06T07:14:14;99350.63;;;10.06
76901;BMP280;65859;43.020;25.096;2024-03-06T07:16:43;99351.09;;;10.08
76901;BMP280;65859;43.020;25.096;2024-03-06T07:19:10;99352.34;;;10.02
76901;BMP280;65859;43.020;25.096;2024-03-06T07:21:37;99358.41;;;9.50
76901;BMP280;65859;43.020;25.096;2024-03-06T07:24:04;99354.81;;;9.98
76901;BMP280;65859;43.020;25.096;2024-03-06T07:26:33;99363.25;;;9.91
76901;BMP280;65859;43.020;25.096;2024-03-06T07:28:59;99362.16;;;9.92
76901;BMP280;65859;43.020;25.096;2024-03-06T07:31:26;99365.88;;;10.00
76901;BMP280;65859;43.020;25.096;2024-03-06T07:33:52;99366.50;;;10.32
76901;BMP280;65859;43.020;25.096;2024-03-06T07:36:20;99368.41;;;10.14
76901;BMP280;65859;43.020;25.096;2024-03-06T07:38:46;99371.00;;;10.40
76901;BMP280;65859;43.020;25.096;2024-03-06T07:41:13;99361.34;;;10.26
76901;BMP280;65859;43.020;25.096;2024-03-06T07:43:39;99363.84;;;10.32
76901;BMP280;65859;43.020;25.096;2024-03-06T07:46:06;99363.84;;;10.32
76901;BMP280;65859;43.020;25.096;2024-03-06T07:48:37;99366.50;;;10.78
76901;BMP280;65859;43.020;25.096;2024-03-06T07:51:04;99372.16;;;10.68
76901;BMP280;65859;43.020;25.096;2024-03-06T07:53:30;99366.56;;;10.61
76901;BMP280;65859;43.020;25.096;2024-03-06T07:55:57;99369.09;;;10.49
76901;BMP280;65859;43.020;25.096;2024-03-06T07:58:23;99364.41;;;10.63
76901;BMP280;65859;43.020;25.096;2024-03-06T08:00:49;99356.06;;;10.73
76901;BMP280;65859;43.020;25.096;2024-03-06T08:03:15;99365.00;;;10.60
76901;BMP280;65859;43.020;25.096;2024-03-06T08:05:43;99358.84;;;10.39
76901;BMP280;65859;43.020;25.096;2024-03-06T08:08:09;99367.88;;;10.29
76901;BMP280;65859;43.020;25.096;2024-03-06T08:10:35;99375.94;;;10.50
76901;BMP280;65859;43.020;25.096;2024-03-06T08:13:01;99377.22;;;10.52
76901;BMP280;65859;43.020;25.096;2024-03-06T08:15:29;99369.78;;;10.29
76901;BMP280;65859;43.020;25.096;2024-03-06T08:17:56;99377.75;;;10.20
76901;BMP280;65859;43.020;25.096;2024-03-06T08:20:22;99382.34;;;10.40
76901;BMP280;65859;43.020;25.096;2024-03-06T08:22:49;99379.50;;;10.63
76901;BMP280;65859;43.020;25.096;2024-03-06T08:25:15;99380.28;;;10.72
76901;BMP280;65859;43.020;25.096;2024-03-06T08:27:42;99385.22;;;10.82
76901;BMP280;65859;43.020;25.096;2024-03-06T08:30:09;99386.59;;;11.26
76901;BMP280;65859;43.020;25.096;2024-03-06T08:32:36;99389.25;;;10.88
76901;BMP280;65859;43.020;25.096;2024-03-06T08:35:04;99393.47;;;11.27
76901;BMP280;65859;43.020;25.096;2024-03-06T08:37:35;99388.88;;;11.37
76901;BMP280;65859;43.020;25.096;2024-03-06T08:40:02;99405.47;;;12.17
76901;BMP280;65859;43.020;25.096;2024-03-06T08:42:28;99404.78;;;12.78
76901;BMP280;65859;43.020;25.096;2024-03-06T08:44:57;99405.31;;;14.00
76901;BMP280;65859;43.020;25.096;2024-03-06T08:47:23;99400.66;;;13.29
76901;BMP280;65859;43.020;25.096;2024-03-06T08:49:51;99400.94;;;13.52
76901;BMP280;65859;43.020;25.096;2024-03-06T08:52:17;99407.00;;;14.99
76901;BMP280;65859;43.020;25.096;2024-03-06T08:54:43;99414.00;;;15.23
76901;BMP280;65859;43.020;25.096;2024-03-06T08:57:10;99407.47;;;14.38
76901;BMP280;65859;43.020;25.096;2024-03-06T08:59:37;99404.88;;;12.81
76901;BMP280;65859;43.020;25.096;2024-03-06T09:02:14;99413.84;;;12.19
76901;BMP280;65859;43.020;25.096;2024-03-06T09:22:51;99401.13;;;11.50
76901;BMP280;65859;43.020;25.096;2024-03-06T09:25:21;99398.56;;;11.62
76901;BMP280;65859;43.020;25.096;2024-03-06T09:27:47;99411.09;;;11.95
76901;BMP280;65859;43.020;25.096;2024-03-06T09:30:17;99410.03;;;12.29
76901;BMP280;65859;43.020;25.096;2024-03-06T09:32:43;99408.28;;;12.12
76901;BMP280;65859;43.020;25.096;2024-03-06T09:35:10;99407.53;;;11.90
76901;BMP280;65859;43.020;25.096;2024-03-06T09:37:36;99405.53;;;12.20
76901;BMP280;65859;43.020;25.096;2024-03-06T09:40:02;99401.66;;;12.18
76901;BMP280;65859;43.020;25.096;2024-03-06T09:42:29;99400.78;;;12.59
76901;BMP280;65859;43.020;25.096;2024-03-06T09:44:55;99407.75;;;12.64
76901;BMP280;65859;43.020;25.096;2024-03-06T09:47:22;99396.69;;;12.16
76901;BMP280;65859;43.020;25.096;2024-03-06T09:49:52;99401.97;;;12.37
76901;BMP280;65859;43.020;25.096;2024-03-06T09:52:23;99395.91;;;12.61
76901;BMP280;65859;43.020;25.096;2024-03-06T09:54:50;99393.28;;;12.98
76901;BMP280;65859;43.020;25.096;2024-03-06T09:57:19;99403.00;;;12.69
76901;BMP280;65859;43.020;25.096;2024-03-06T09:59:46;99401.25;;;12.98
76901;BMP280;65859;43.020;25.096;2024-03-06T10:02:38;99396.72;;;11.75
76901;BMP280;65859;43.020;25.096;2024-03-06T10:05:05;99403.25;;;11.98
76901;BMP280;65859;43.020;25.096;2024-03-06T10:07:32;99403.09;;;12.61
76901;BMP280;65859;43.020;25.096;2024-03-06T10:09:58;99400.47;;;13.10
76901;BMP280;65859;43.020;25.096;2024-03-06T10:12:24;99408.53;;;14.06
76901;BMP280;65859;43.020;25.096;2024-03-06T10:14:54;99437.16;;;16.35
76901;BMP280;65859;43.020;25.096;2024-03-06T10:17:21;99429.00;;;18.01
76901;BMP280;65859;43.020;25.096;2024-03-06T10:19:52;99404.00;;;15.98
76901;BMP280;65859;43.020;25.096;2024-03-06T10:22:19;99401.06;;;14.90
76901;BMP280;65859;43.020;25.096;2024-03-06T10:24:47;99406.00;;;15.43
76901;BMP280;65859;43.020;25.096;2024-03-06T10:27:17;99411.22;;;15.74
76901;BMP280;65859;43.020;25.096;2024-03-06T10:29:44;99415.50;;;16.70
76901;BMP280;65859;43.020;25.096;2024-03-06T10:32:15;99415.19;;;17.62
76901;BMP280;65859;43.020;25.096;2024-03-06T10:34:45;99396.34;;;16.65
76901;BMP280;65859;43.020;25.096;2024-03-06T10:37:11;99400.53;;;16.66
76901;BMP280;65859;43.020;25.096;2024-03-06T10:39:42;99393.19;;;16.13
76901;BMP280;65859;43.020;25.096;2024-03-06T10:42:13;99384.34;;;15.90
76901;BMP280;65859;43.020;25.096;2024-03-06T10:44:44;99404.31;;;16.38
76901;BMP280;65859;43.020;25.096;2024-03-06T10:47:16;99447.94;;;19.25
76901;BMP280;65859;43.020;25.096;2024-03-06T10:49:42;99450.47;;;23.44
76901;BMP280;65859;43.020;25.096;2024-03-06T10:52:10;99409.84;;;23.17
76901;BMP280;65859;43.020;25.096;2024-03-06T10:54:36;99399.22;;;19.76
76901;BMP280;65859;43.020;25.096;2024-03-06T10:57:09;99391.78;;;18.51
76901;BMP280;65859;43.020;25.096;2024-03-06T10:59:36;99385.69;;;18.57
76901;BMP280;65859;43.020;25.096;2024-03-06T11:02:03;99428.09;;;20.29
76901;BMP280;65859;43.020;25.096;2024-03-06T11:04:31;99373.09;;;17.70
76901;BMP280;65859;43.020;25.096;2024-03-06T11:07:01;99365.84;;;16.50
76901;BMP280;65859;43.020;25.096;2024-03-06T11:09:29;99371.97;;;15.82
76901;BMP280;65859;43.020;25.096;2024-03-06T11:11:58;99361.34;;;14.73
76901;BMP280;65859;43.020;25.096;2024-03-06T11:14:24;99354.19;;;14.77
76901;BMP280;65859;43.020;25.096;2024-03-06T11:17:09;99354.75;;;14.67
76901;BMP280;65859;43.020;25.096;2024-03-06T11:23:08;99393.63;;;16.91
76901;BMP280;65859;43.020;25.096;2024-03-06T11:28:45;99352.88;;;18.96
76901;BMP280;65859;43.020;25.096;2024-03-06T11:31:19;99343.31;;;18.33
76901;BMP280;65859;43.020;25.096;2024-03-06T11:33:52;99356.88;;;19.63
76901;BMP280;65859;43.020;25.096;2024-03-06T11:36:24;99373.69;;;22.36
76901;BMP280;65859;43.020;25.096;2024-03-06T11:41:23;99411.88;;;25.06
76901;BMP280;65859;43.020;25.096;2024-03-06T11:43:51;99408.63;;;26.63
76901;BMP280;65859;43.020;25.096;2024-03-06T11:46:22;99407.94;;;27.35
76901;BMP280;65859;43.020;25.096;2024-03-06T11:48:53;99405.00;;;27.98
76901;BMP280;65859;43.020;25.096;2024-03-06T11:51:20;99390.09;;;26.57
76901;BMP280;65859;43.020;25.096;2024-03-06T11:53:48;99326.28;;;22.58
76901;BMP280;65859;43.020;25.096;2024-03-06T11:56:15;99320.84;;;17.60
76901;BMP280;65859;43.020;25.096;2024-03-06T11:58:41;99313.13;;;16.31
76901;BMP280;65859;43.020;25.096;2024-03-06T12:01:07;99314.41;;;15.26
76901;BMP280;65859;43.020;25.096;2024-03-06T12:03:33;99310.41;;;15.59
76901;BMP280;65859;43.020;25.096;2024-03-06T12:06:01;99310.56;;;14.89
76901;BMP280;65859;43.020;25.096;2024-03-06T12:08:29;99305.69;;;14.94
76901;BMP280;65859;43.020;25.096;2024-03-06T12:10:56;99309.22;;;14.79
76901;BMP280;65859;43.020;25.096;2024-03-06T12:13:24;99303.88;;;14.28
76901;BMP280;65859;43.020;25.096;2024-03-06T12:15:51;99306.16;;;14.30
76901;BMP280;65859;43.020;25.096;2024-03-06T12:18:20;99313.41;;;14.45
76901;BMP280;65859;43.020;25.096;2024-03-06T12:20:49;99302.25;;;14.74
76901;BMP280;65859;43.020;25.096;2024-03-06T12:23:22;99303.19;;;14.66
76901;BMP280;65859;43.020;25.096;2024-03-06T12:26:10;99302.94;;;14.71
76901;BMP280;65859;43.020;25.096;2024-03-06T12:28:37;99303.81;;;14.76
76901;BMP280;65859;43.020;25.096;2024-03-06T12:31:05;99307.69;;;14.97
76901;BMP280;65859;43.020;25.096;2024-03-06T12:33:32;99301.06;;;14.91
76901;BMP280;65859;43.020;25.096;2024-03-06T12:36:09;99288.13;;;14.74
76901;BMP280;65859;43.020;25.096;2024-03-06T12:38:39;99297.00;;;14.62
76901;BMP280;65859;43.020;25.096;2024-03-06T12:41:06;99290.25;;;14.02
76901;BMP280;65859;43.020;25.096;2024-03-06T12:43:32;99281.38;;;13.82
76901;BMP280;65859;43.020;25.096;2024-03-06T12:46:00;99278.19;;;14.39
76901;BMP280;65859;43.020;25.096;2024-03-06T12:48:26;99282.75;;;14.07
76901;BMP280;65859;43.020;25.096;2024-03-06T12:50:55;99285.31;;;14.35
76901;BMP280;65859;43.020;25.096;2024-03-06T12:53:22;99284.03;;;14.29
76901;BMP280;65859;43.020;25.096;2024-03-06T12:55:48;99278.09;;;13.88
76901;BMP280;65859;43.020;25.096;2024-03-06T12:58:15;99277.66;;;14.50
76901;BMP280;65859;43.020;25.096;2024-03-06T13:00:41;99280.31;;;15.23
76901;BMP280;65859;43.020;25.096;2024-03-06T13:03:08;99279.28;;;15.28
76901;BMP280;65859;43.020;25.096;2024-03-06T13:05:34;99290.06;;;14.77
76901;BMP280;65859;43.020;25.096;2024-03-06T13:08:00;99279.56;;;14.17
76901;BMP280;65859;43.020;25.096;2024-03-06T13:10:28;99275.13;;;14.92
76901;BMP280;65859;43.020;25.096;2024-03-06T13:12:55;99274.50;;;14.12
76901;BMP280;65859;43.020;25.096;2024-03-06T13:15:21;99269.00;;;14.05
76901;BMP280;65859;43.020;25.096;2024-03-06T13:17:48;99272.75;;;13.73
76901;BMP280;65859;43.020;25.096;2024-03-06T13:20:14;99270.22;;;14.08
76901;BMP280;65859;43.020;25.096;2024-03-06T13:22:40;99259.19;;;14.09
76901;BMP280;65859;43.020;25.096;2024-03-06T13:25:07;99252.94;;;14.37
76901;BMP280;65859;43.020;25.096;2024-03-06T13:27:33;99257.47;;;14.68
76901;BMP280;65859;43.020;25.096;2024-03-06T13:30:00;99254.72;;;13.98
76901;BMP280;65859;43.020;25.096;2024-03-06T13:32:26;99254.00;;;13.41
76901;BMP280;65859;43.020;25.096;2024-03-06T13:34:52;99255.03;;;13.37
76901;BMP280;65859;43.020;25.096;2024-03-06T13:37:19;99260.66;;;13.47
76901;BMP280;65859;43.020;25.096;2024-03-06T13:39:48;99251.84;;;13.59
76901;BMP280;65859;43.020;25.096;2024-03-06T13:42:16;99253.72;;;13.30
76901;BMP280;65859;43.020;25.096;2024-03-06T13:44:42;99252.19;;;13.57
76901;BMP280;65859;43.020;25.096;2024-03-06T13:47:14;99255.22;;;13.16
76901;BMP280;65859;43.020;25.096;2024-03-06T13:49:41;99257.06;;;13.40
76901;BMP280;65859;43.020;25.096;2024-03-06T13:52:09;99251.41;;;13.29
76901;BMP280;65859;43.020;25.096;2024-03-06T13:54:42;99255.78;;;13.49
76901;BMP280;65859;43.020;25.096;2024-03-06T13:57:09;99251.47;;;13.17
76901;BMP280;65859;43.020;25.096;2024-03-06T13:59:35;99243.78;;;13.15
76901;BMP280;65859;43.020;25.096;2024-03-06T14:02:03;99263.09;;;13.52
76901;BMP280;65859;43.020;25.096;2024-03-06T14:04:30;99253.63;;;13.39
76901;BMP280;65859;43.020;25.096;2024-03-06T14:06:56;99250.06;;;13.35
76901;BMP280;65859;43.020;25.096;2024-03-06T14:09:23;99251.50;;;13.60
76901;BMP280;65859;43.020;25.096;2024-03-06T14:11:51;99248.13;;;13.64
76901;BMP280;65859;43.020;25.096;2024-03-06T14:14:19;99259.25;;;13.81
76901;BMP280;65859;43.020;25.096;2024-03-06T14:16:46;99250.06;;;13.79
76901;BMP280;65859;43.020;25.096;2024-03-06T14:19:12;99254.63;;;13.35
76901;BMP280;65859;43.020;25.096;2024-03-06T14:21:39;99253.22;;;13.53
76901;BMP280;65859;43.020;25.096;2024-03-06T14:24:06;99252.09;;;13.70
76901;BMP280;65859;43.020;25.096;2024-03-06T14:26:33;99250.38;;;13.62
76901;BMP280;65859;43.020;25.096;2024-03-06T14:29:03;99254.72;;;13.38
76901;BMP280;65859;43.020;25.096;2024-03-06T14:31:32;99256.41;;;13.30